createdAt,value
2018-12-18T00:00:16.528Z,67.60
2018-12-18T00:02:50.709Z,67.70
2018-12-18T00:05:27.956Z,66.91
2018-12-18T00:07:57.909Z,67.41
2018-12-18T00:13:28.333Z,67.96
2018-12-18T00:15:58.300Z,68.28
2018-12-18T00:18:28.284Z,68.50
2018-12-18T00:20:58.368Z,68.03
2018-12-18T00:23:28.279Z,67.78
2018-12-18T00:25:58.396Z,67.93
2018-12-18T00:28:28.352Z,67.97
2018-12-18T00:30:58.324Z,68.20
2018-12-18T00:33:28.237Z,68.95
2018-12-18T00:35:58.132Z,67.95
2018-12-18T00:38:28.081Z,68.48
2018-12-18T00:40:57.981Z,67.68
2018-12-18T00:43:27.897Z,67.83
2018-12-18T00:45:58.252Z,68.37
2018-12-18T00:48:28.235Z,67.96
2018-12-18T00:50:58.164Z,67.70
2018-12-18T00:53:28.081Z,67.95
2018-12-18T00:55:57.980Z,68.08
2018-12-18T00:58:27.903Z,67.18
2018-12-18T01:00:57.801Z,67.79
2018-12-18T01:03:27.921Z,67.73
2018-12-18T01:05:58.030Z,67.37
2018-12-18T01:08:27.977Z,67.48
2018-12-18T01:10:57.997Z,67.08
2018-12-18T01:13:27.929Z,68.12
2018-12-18T01:15:58.054Z,67.52
2018-12-18T01:18:27.980Z,67.18
2018-12-18T01:20:57.874Z,67.68
2018-12-18T01:23:27.971Z,67.24
2018-12-18T01:25:58.021Z,67.82
2018-12-18T01:28:27.964Z,67.11
2018-12-18T01:30:57.951Z,67.21
2018-12-18T01:33:27.964Z,66.46
2018-12-18T01:35:57.957Z,67.34
2018-12-18T01:38:27.897Z,67.61
2018-12-18T01:40:57.788Z,66.69
2018-12-18T01:43:27.723Z,66.97
2018-12-18T01:45:57.701Z,67.25
2018-12-18T01:48:27.849Z,66.97
2018-12-18T01:50:57.840Z,67.60
2018-12-18T01:53:27.801Z,67.48
2018-12-18T01:55:57.758Z,67.56
2018-12-18T01:58:27.758Z,67.31
2018-12-18T02:00:57.700Z,66.94
2018-12-18T02:03:27.644Z,66.95
2018-12-18T02:05:57.817Z,67.69
2018-12-18T02:08:27.794Z,67.63
2018-12-18T02:10:57.896Z,67.32
2018-12-18T02:13:27.833Z,67.64
2018-12-18T02:15:57.728Z,67.30
2018-12-18T02:18:27.672Z,67.62
2018-12-18T02:20:57.581Z,67.71
2018-12-18T02:23:27.695Z,67.32
2018-12-18T02:26:02.603Z,67.61
2018-12-18T02:28:32.527Z,67.02
2018-12-18T02:31:02.499Z,67.18
2018-12-18T02:33:32.462Z,66.68
2018-12-18T02:36:02.490Z,66.81
2018-12-18T02:38:32.418Z,66.95
2018-12-18T02:41:03.530Z,67.42
2018-12-18T02:43:33.500Z,67.78
2018-12-18T02:46:03.483Z,66.60
2018-12-18T02:48:33.712Z,67.61
2018-12-18T02:51:03.676Z,66.95
2018-12-18T02:53:33.584Z,67.12
2018-12-18T02:56:04.082Z,67.11
2018-12-18T02:58:34.055Z,66.88
2018-12-18T03:01:04.101Z,67.41
2018-12-18T03:03:34.026Z,67.80
2018-12-18T03:06:04.011Z,67.38
2018-12-18T03:08:34.136Z,66.29
2018-12-18T03:11:04.141Z,66.57
2018-12-18T03:13:34.131Z,67.07
2018-12-18T03:16:04.177Z,66.35
2018-12-18T03:18:34.142Z,66.64
2018-12-18T03:21:04.058Z,66.88
2018-12-18T03:23:33.964Z,66.37
2018-12-18T03:28:48.813Z,67.61
2018-12-18T03:31:18.740Z,66.94
2018-12-18T03:33:48.696Z,67.27
2018-12-18T03:36:18.591Z,66.75
2018-12-18T03:38:48.567Z,66.59
2018-12-18T03:41:18.479Z,66.31
2018-12-18T03:43:48.412Z,66.17
2018-12-18T03:46:18.545Z,66.48
2018-12-18T03:48:48.748Z,66.66
2018-12-18T03:51:18.790Z,66.58
2018-12-18T03:53:48.785Z,66.92
2018-12-18T03:56:18.772Z,66.79
2018-12-18T03:58:48.764Z,66.49
2018-12-18T04:01:18.810Z,66.53
2018-12-18T04:03:48.769Z,66.60
2018-12-18T04:06:18.667Z,67.20
2018-12-18T04:08:48.578Z,66.56
2018-12-18T04:11:18.487Z,67.14
2018-12-18T04:13:48.527Z,67.83
2018-12-18T04:16:18.441Z,67.82
2018-12-18T04:18:48.419Z,67.58
2018-12-18T04:21:18.458Z,67.11
2018-12-18T04:23:48.583Z,66.82
2018-12-18T04:26:18.578Z,67.16
2018-12-18T04:31:32.999Z,66.61
2018-12-18T04:34:02.919Z,66.65
2018-12-18T04:36:32.825Z,66.43
2018-12-18T04:39:03.019Z,66.71
2018-12-18T04:41:34.651Z,66.21
2018-12-18T04:44:04.769Z,66.45
2018-12-18T04:46:34.663Z,66.95
2018-12-18T04:49:04.730Z,66.29
2018-12-18T04:51:34.637Z,65.91
2018-12-18T04:54:04.712Z,66.34
2018-12-18T04:56:34.638Z,66.10
2018-12-18T04:59:04.841Z,66.28
2018-12-18T05:01:34.751Z,66.00
2018-12-18T05:04:04.822Z,65.71
2018-12-18T05:06:34.832Z,65.53
2018-12-18T05:09:09.209Z,65.95
2018-12-18T05:11:39.201Z,66.09
2018-12-18T05:14:09.183Z,67.49
2018-12-18T05:16:39.088Z,67.58
2018-12-18T05:19:09.008Z,66.92
2018-12-18T05:21:38.953Z,66.81
2018-12-18T05:24:09.170Z,66.18
2018-12-18T05:26:39.081Z,66.18
2018-12-18T05:29:09.044Z,67.09
2018-12-18T05:31:39.066Z,67.02
2018-12-18T05:34:09.125Z,67.16
2018-12-18T05:36:39.019Z,66.68
2018-12-18T05:39:09.015Z,66.91
2018-12-18T05:41:38.968Z,66.85
2018-12-18T05:44:10.919Z,67.45
2018-12-18T05:46:41.740Z,67.28
2018-12-18T05:49:11.735Z,67.69
2018-12-18T05:51:41.736Z,67.12
2018-12-18T05:54:11.727Z,66.53
2018-12-18T05:56:41.968Z,66.51
2018-12-18T05:59:12.065Z,66.00
2018-12-18T06:01:42.020Z,67.65
2018-12-18T06:04:11.976Z,66.55
2018-12-18T06:06:42.868Z,67.78
2018-12-18T06:09:13.951Z,67.31
2018-12-18T06:11:43.972Z,66.94
2018-12-18T06:14:13.897Z,66.42
2018-12-18T06:16:43.809Z,66.65
2018-12-18T06:19:13.769Z,66.25
2018-12-18T06:21:43.752Z,66.49
2018-12-18T06:24:13.885Z,66.59
2018-12-18T06:26:43.952Z,67.56
2018-12-18T06:29:13.872Z,67.35
2018-12-18T06:31:43.800Z,67.27
2018-12-18T06:34:13.710Z,66.80
2018-12-18T06:36:43.624Z,66.97
2018-12-18T06:39:13.551Z,66.71
2018-12-18T06:41:43.803Z,66.33
2018-12-18T06:44:13.791Z,66.53
2018-12-18T06:46:43.727Z,66.50
2018-12-18T06:49:13.639Z,66.31
2018-12-18T06:51:43.548Z,66.55
2018-12-18T06:54:13.582Z,66.74
2018-12-18T06:56:43.596Z,66.39
2018-12-18T06:59:13.496Z,66.62
2018-12-18T07:01:43.431Z,67.24
2018-12-18T07:04:13.488Z,66.37
2018-12-18T07:06:43.413Z,66.12
2018-12-18T07:09:13.378Z,66.51
2018-12-18T07:11:43.436Z,66.56
2018-12-18T07:14:13.341Z,66.71
2018-12-18T07:16:43.272Z,66.74
2018-12-18T07:19:13.727Z,66.61
2018-12-18T07:21:43.653Z,66.75
2018-12-18T07:24:14.255Z,66.80
2018-12-18T07:26:44.381Z,66.58
2018-12-18T07:29:14.309Z,66.84
2018-12-18T07:31:44.349Z,66.20
2018-12-18T07:34:14.348Z,66.32
2018-12-18T07:36:44.270Z,66.10
2018-12-18T07:39:14.163Z,65.52
2018-12-18T07:41:44.072Z,65.76
2018-12-18T07:44:14.048Z,65.81
2018-12-18T07:46:45.372Z,66.27
2018-12-18T07:49:15.620Z,66.72
2018-12-18T07:51:46.261Z,66.57
2018-12-18T08:16:34.461Z,64.36
2018-12-18T08:25:12.295Z,64.46
2018-12-18T08:27:43.274Z,63.88
2018-12-18T08:30:16.639Z,64.38
2018-12-18T08:32:50.773Z,64.14
2018-12-18T08:35:20.671Z,64.56
2018-12-18T08:37:50.584Z,64.51
2018-12-18T08:40:20.525Z,64.45
2018-12-18T08:42:50.524Z,64.60
2018-12-18T08:45:20.431Z,64.76
2018-12-18T08:47:50.405Z,64.99
2018-12-18T08:50:20.316Z,64.67
2018-12-18T08:52:50.361Z,65.02
2018-12-18T08:55:20.353Z,64.91
2018-12-18T08:57:50.437Z,64.82
2018-12-18T09:00:20.419Z,64.61
2018-12-18T09:02:50.333Z,64.07
2018-12-18T09:05:20.319Z,64.57
2018-12-18T09:07:50.276Z,64.54
2018-12-18T09:10:20.188Z,64.76
2018-12-18T09:12:50.095Z,64.19
2018-12-18T09:15:25.357Z,63.75
2018-12-18T09:17:55.355Z,63.23
2018-12-18T09:20:25.272Z,63.12
2018-12-18T09:22:55.203Z,63.23
2018-12-18T09:25:25.193Z,61.97
2018-12-18T09:30:42.725Z,62.77
2018-12-18T09:33:12.698Z,62.90
2018-12-18T09:35:42.684Z,62.78
2018-12-18T09:38:17.900Z,62.62
2018-12-18T09:40:53.356Z,62.35
2018-12-18T09:43:28.404Z,62.16
2018-12-18T09:45:58.428Z,63.02
2018-12-18T09:48:28.367Z,63.06
2018-12-18T09:50:58.290Z,62.26
2018-12-18T09:53:28.266Z,62.01
2018-12-18T09:55:58.222Z,62.02
2018-12-18T09:58:29.069Z,62.00
2018-12-18T10:00:59.133Z,62.13
2018-12-18T10:03:33.482Z,61.80
2018-12-18T10:06:01.129Z,62.20
2018-12-18T10:08:31.187Z,62.24
2018-12-18T10:11:01.214Z,60.23
2018-12-18T10:13:31.212Z,59.96
2018-12-18T10:16:01.329Z,60.52
2018-12-18T10:18:31.323Z,60.20
2018-12-18T10:21:01.353Z,60.62
2018-12-18T10:23:31.348Z,61.22
2018-12-18T10:26:01.262Z,60.60
2018-12-18T10:28:31.297Z,60.38
2018-12-18T10:31:01.221Z,61.30
2018-12-18T10:33:31.341Z,60.38
2018-12-18T10:36:03.142Z,60.21
2018-12-18T10:38:33.312Z,60.16
2018-12-18T10:41:03.230Z,60.26
2018-12-18T10:43:34.373Z,60.09
2018-12-18T10:46:04.436Z,59.15
2018-12-18T10:48:34.409Z,59.08
2018-12-18T10:51:05.758Z,59.29
2018-12-18T10:53:35.678Z,59.08
2018-12-18T10:56:05.580Z,59.77
2018-12-18T10:58:35.596Z,59.17
2018-12-18T11:01:10.813Z,59.54
2018-12-18T11:03:40.801Z,59.39
2018-12-18T11:06:10.868Z,58.56
2018-12-18T11:08:40.869Z,58.02
2018-12-18T11:11:10.788Z,58.37
2018-12-18T11:13:40.846Z,59.08
2018-12-18T11:16:10.829Z,58.39
2018-12-18T11:18:40.840Z,58.30
2018-12-18T11:21:10.748Z,57.53
2018-12-18T11:23:40.772Z,56.99
2018-12-18T11:26:10.824Z,57.41
2018-12-18T11:28:42.667Z,57.42
2018-12-18T11:31:12.684Z,57.45
2018-12-18T11:33:42.824Z,57.91
2018-12-18T11:36:16.432Z,56.78
2018-12-18T11:38:44.712Z,56.59
2018-12-18T11:41:14.766Z,56.31
2018-12-18T11:43:44.721Z,56.04
2018-12-18T11:46:14.823Z,55.86
2018-12-18T11:48:44.747Z,55.86
2018-12-18T11:51:14.751Z,56.20
2018-12-18T11:53:44.677Z,56.49
2018-12-18T11:56:15.828Z,55.01
2018-12-18T11:58:45.759Z,55.59
2018-12-18T12:01:15.815Z,55.26
2018-12-18T12:03:45.899Z,55.05
2018-12-18T12:06:23.061Z,54.16
2018-12-18T12:08:49.851Z,55.17
2018-12-18T12:11:19.816Z,54.93
2018-12-18T12:13:49.736Z,53.58
2018-12-18T12:16:19.744Z,53.37
2018-12-18T12:18:49.776Z,52.48
2018-12-18T12:21:19.779Z,52.04
2018-12-18T12:23:49.715Z,52.64
2018-12-18T12:26:25.001Z,53.05
2018-12-18T12:28:54.977Z,52.44
2018-12-18T12:31:24.922Z,51.54
2018-12-18T12:33:56.093Z,51.06
2018-12-18T12:36:29.604Z,50.58
2018-12-18T12:38:57.937Z,51.38
2018-12-18T12:41:27.899Z,51.54
2018-12-18T12:43:57.837Z,51.18
2018-12-18T12:46:27.748Z,50.90
2018-12-18T12:51:45.172Z,51.97
2018-12-18T12:54:15.103Z,50.56
2018-12-18T12:56:45.016Z,50.62
2018-12-18T12:59:14.968Z,50.75
2018-12-18T13:01:44.940Z,50.31
2018-12-18T13:04:14.880Z,50.51
2018-12-18T13:06:44.802Z,50.58
2018-12-18T13:09:15.044Z,50.66
2018-12-18T13:11:45.042Z,50.03
2018-12-18T13:14:14.970Z,49.79
2018-12-18T13:16:45.049Z,50.41
2018-12-18T13:19:15.094Z,48.51
2018-12-18T13:21:45.173Z,48.54
2018-12-18T13:24:15.125Z,48.84
2018-12-18T13:26:45.109Z,48.93
2018-12-18T13:29:15.105Z,48.11
2018-12-18T13:31:45.518Z,48.10
2018-12-18T13:34:15.536Z,48.91
2018-12-18T13:36:45.602Z,48.18
2018-12-18T13:39:15.772Z,47.81
2018-12-18T13:41:45.760Z,47.66
2018-12-18T13:44:15.753Z,47.95
2018-12-18T13:46:45.706Z,48.00
2018-12-18T13:49:15.704Z,48.93
2018-12-18T13:51:45.656Z,49.24
2018-12-18T13:54:15.608Z,48.44
2018-12-18T13:56:45.556Z,48.56
2018-12-18T13:59:15.519Z,48.25
2018-12-18T14:01:45.520Z,48.42
2018-12-18T14:04:15.445Z,47.36
2018-12-18T14:06:49.632Z,47.78
2018-12-18T14:09:17.492Z,47.76
2018-12-18T14:11:47.541Z,48.12
2018-12-18T14:14:17.812Z,47.49
2018-12-18T14:16:47.833Z,47.91
2018-12-18T14:19:17.740Z,47.44
2018-12-18T14:21:47.758Z,47.52
2018-12-18T14:24:17.764Z,48.14
2018-12-18T14:26:47.801Z,48.13
2018-12-18T14:29:17.718Z,47.94
2018-12-18T14:31:47.657Z,47.97
2018-12-18T14:34:17.627Z,47.73
2018-12-18T14:36:47.552Z,48.78
2018-12-18T14:39:18.513Z,49.03
2018-12-18T14:41:48.440Z,48.35
2018-12-18T14:44:18.357Z,47.82
2018-12-18T14:46:48.334Z,48.79
2018-12-18T14:49:18.253Z,48.04
2018-12-18T14:51:48.178Z,49.05
2018-12-18T14:54:18.616Z,48.30
2018-12-18T14:59:18.077Z,48.20
2018-12-18T15:01:48.049Z,48.52
2018-12-18T15:04:17.961Z,49.45
2018-12-18T15:06:47.896Z,49.22
2018-12-18T15:09:17.821Z,49.60
2018-12-18T15:11:47.744Z,49.18
2018-12-18T15:14:17.696Z,49.20
2018-12-18T15:16:48.776Z,49.84
2018-12-18T15:19:18.765Z,50.22
2018-12-18T15:21:48.711Z,49.83
2018-12-18T15:24:18.814Z,49.88
2018-12-18T15:26:48.711Z,50.30
2018-12-18T15:29:18.611Z,49.94
2018-12-18T15:31:48.536Z,50.13
2018-12-18T15:34:18.528Z,50.13
2018-12-18T15:36:48.532Z,50.46
2018-12-18T15:39:18.721Z,49.76
2018-12-18T15:41:48.652Z,49.99
2018-12-18T15:44:18.620Z,49.82
2018-12-18T15:46:48.547Z,50.38
2018-12-18T15:49:18.552Z,50.58
2018-12-18T15:51:48.757Z,50.94
2018-12-18T15:54:18.751Z,50.56
2018-12-18T15:56:48.870Z,51.02
2018-12-18T15:59:18.829Z,50.87
2018-12-18T16:01:48.791Z,50.80
2018-12-18T16:04:18.764Z,51.41
2018-12-18T16:06:48.773Z,51.69
2018-12-18T16:09:18.690Z,51.22
2018-12-18T16:11:48.634Z,51.33
2018-12-18T16:14:18.528Z,51.41
2018-12-18T16:16:48.700Z,51.52
2018-12-18T16:19:19.956Z,51.71
2018-12-18T16:21:50.112Z,51.55
2018-12-18T16:24:20.069Z,51.17
2018-12-18T16:26:50.004Z,51.45
2018-12-18T16:29:19.952Z,51.05
2018-12-18T16:31:49.956Z,51.30
2018-12-18T16:34:21.053Z,51.35
2018-12-18T16:36:51.098Z,51.52
2018-12-18T16:39:21.060Z,52.11
2018-12-18T16:41:50.984Z,51.55
2018-12-18T16:44:20.889Z,51.83
2018-12-18T16:46:50.897Z,52.90
2018-12-18T16:49:20.960Z,53.05
2018-12-18T16:51:50.972Z,53.56
2018-12-18T16:54:21.349Z,52.87
2018-12-18T16:56:51.633Z,53.52
2018-12-18T16:59:21.552Z,52.86
2018-12-18T17:01:51.479Z,52.83
2018-12-18T17:04:21.455Z,53.41
2018-12-18T17:06:51.737Z,53.43
2018-12-18T17:09:21.777Z,54.08
2018-12-18T17:11:51.701Z,54.74
2018-12-18T17:14:21.601Z,54.73
2018-12-18T17:16:51.642Z,54.71
2018-12-18T17:19:21.620Z,55.23
2018-12-18T17:21:51.636Z,55.35
2018-12-18T17:24:21.691Z,55.83
2018-12-18T17:26:51.628Z,55.10
2018-12-18T17:29:21.544Z,55.77
2018-12-18T17:31:51.462Z,55.69
2018-12-18T17:34:21.482Z,56.25
2018-12-18T17:36:51.552Z,55.75
2018-12-18T17:39:21.503Z,55.84
2018-12-18T17:41:51.505Z,55.72
2018-12-18T17:44:21.521Z,55.44
2018-12-18T17:46:51.425Z,55.45
2018-12-18T17:49:21.365Z,56.07
2018-12-18T17:51:51.356Z,56.51
2018-12-18T17:54:21.281Z,56.18
2018-12-18T17:56:51.187Z,57.40
2018-12-18T17:59:21.155Z,57.38
2018-12-18T18:01:51.062Z,56.56
2018-12-18T18:04:21.051Z,56.93
2018-12-18T18:06:51.068Z,57.01
2018-12-18T18:09:20.996Z,56.92
2018-12-18T18:11:51.081Z,56.68
2018-12-18T18:14:21.118Z,57.12
2018-12-18T18:16:51.092Z,56.57
2018-12-18T18:19:21.032Z,56.34
2018-12-18T18:21:50.981Z,55.71
2018-12-18T18:24:21.320Z,56.79
2018-12-18T18:26:51.283Z,56.75
2018-12-18T18:29:21.249Z,56.64
2018-12-18T18:31:51.149Z,56.76
2018-12-18T18:34:21.353Z,56.67
2018-12-18T18:36:51.259Z,56.73
2018-12-18T18:39:21.324Z,56.76
2018-12-18T18:41:51.285Z,56.95
2018-12-18T18:44:21.325Z,58.07
2018-12-18T18:46:51.323Z,58.37
2018-12-18T18:49:21.387Z,59.07
2018-12-18T18:51:51.478Z,59.25
2018-12-18T18:54:21.483Z,59.02
2018-12-18T18:56:51.481Z,60.03
2018-12-18T18:59:21.468Z,59.17
2018-12-18T19:01:51.476Z,59.65
2018-12-18T19:04:21.536Z,59.88
2018-12-18T19:06:51.510Z,59.75
2018-12-18T19:09:21.520Z,59.78
2018-12-18T19:11:51.433Z,58.86
2018-12-18T19:14:21.518Z,58.55
2018-12-18T19:16:51.426Z,59.11
2018-12-18T19:19:21.408Z,59.42
2018-12-18T19:21:51.462Z,59.44
2018-12-18T19:24:21.421Z,60.02
2018-12-18T19:26:51.402Z,59.93
2018-12-18T19:29:21.368Z,60.27
2018-12-18T19:31:51.273Z,60.31
2018-12-18T19:34:21.273Z,59.28
2018-12-18T19:36:51.483Z,60.53
2018-12-18T19:39:21.709Z,59.78
2018-12-18T19:41:51.717Z,60.08
2018-12-18T19:44:21.778Z,59.89
2018-12-18T19:46:52.944Z,60.73
2018-12-18T19:49:22.921Z,60.65
2018-12-18T19:51:53.035Z,60.20
2018-12-18T19:54:23.198Z,60.43
2018-12-18T19:56:53.203Z,60.35
2018-12-18T19:59:23.160Z,60.51
2018-12-18T20:01:53.077Z,60.72
2018-12-18T20:04:23.121Z,61.84
2018-12-18T20:06:53.112Z,60.54
2018-12-18T20:09:23.052Z,60.11
2018-12-18T20:11:53.445Z,60.34
2018-12-18T20:14:23.392Z,60.15
2018-12-18T20:16:53.549Z,60.14
2018-12-18T20:19:23.556Z,59.95
2018-12-18T20:21:53.509Z,60.24
2018-12-18T20:24:23.477Z,60.18
2018-12-18T20:26:53.597Z,60.05
2018-12-18T20:29:23.614Z,60.40
2018-12-18T20:31:53.643Z,60.32
2018-12-18T20:34:23.622Z,59.70
2018-12-18T20:36:53.536Z,59.71
2018-12-18T20:39:23.992Z,60.31
2018-12-18T20:41:53.910Z,60.48
2018-12-18T20:44:23.852Z,60.11
2018-12-18T20:46:53.920Z,60.14
2018-12-18T20:49:23.960Z,60.24
2018-12-18T20:51:54.002Z,60.06
2018-12-18T20:54:24.016Z,60.81
2018-12-18T20:56:53.993Z,60.91
2018-12-18T20:59:24.089Z,60.40
2018-12-18T21:01:54.004Z,60.18
2018-12-18T21:04:24.152Z,60.76
2018-12-18T21:06:54.185Z,60.43
2018-12-18T21:09:25.540Z,60.44
2018-12-18T21:11:55.869Z,60.83
2018-12-18T21:14:26.013Z,60.70
2018-12-18T21:16:56.117Z,60.88
2018-12-18T21:19:26.185Z,60.23
2018-12-18T21:21:56.241Z,60.32
2018-12-18T21:24:26.323Z,59.58
2018-12-18T21:26:56.377Z,60.16
2018-12-18T21:29:26.436Z,59.82
2018-12-18T21:31:56.529Z,60.04
2018-12-18T21:34:26.652Z,59.59
2018-12-18T21:36:56.729Z,59.72
2018-12-18T21:39:26.890Z,60.78
2018-12-18T21:41:56.956Z,60.49
2018-12-18T21:44:27.029Z,61.37
2018-12-18T21:46:57.133Z,60.73
2018-12-18T21:49:27.375Z,59.93
2018-12-18T21:51:57.540Z,60.41
2018-12-18T21:54:27.713Z,60.14
2018-12-18T21:56:57.787Z,60.37
2018-12-18T21:59:27.925Z,60.21
2018-12-18T22:01:58.188Z,60.16
2018-12-18T22:04:28.297Z,60.27
2018-12-18T22:06:58.440Z,60.73
2018-12-18T22:09:28.480Z,60.38
2018-12-18T22:11:58.576Z,60.25
2018-12-18T22:14:28.717Z,60.18
2018-12-18T22:16:58.821Z,60.41
2018-12-18T22:19:28.853Z,60.85
2018-12-18T22:21:58.880Z,60.47
2018-12-18T22:24:28.918Z,60.84
2018-12-18T22:26:58.833Z,60.47
2018-12-18T22:29:28.799Z,60.63
2018-12-18T22:31:58.800Z,60.35
2018-12-18T22:34:28.708Z,60.33
2018-12-18T22:36:58.608Z,60.58
2018-12-18T22:39:28.552Z,60.32
2018-12-18T22:41:58.525Z,60.25
2018-12-18T22:44:28.500Z,60.13
2018-12-18T22:46:58.440Z,60.34
2018-12-18T22:49:28.356Z,60.58
2018-12-18T22:51:58.340Z,60.07
2018-12-18T22:54:28.297Z,60.29
2018-12-18T22:56:58.458Z,60.52
2018-12-18T22:59:28.396Z,60.14
2018-12-18T23:01:58.388Z,60.00
2018-12-18T23:04:28.377Z,60.17
2018-12-18T23:06:58.345Z,59.82
2018-12-18T23:09:28.364Z,60.07
2018-12-18T23:11:58.454Z,60.13
2018-12-18T23:14:28.416Z,60.05
2018-12-18T23:16:58.521Z,60.02
2018-12-18T23:19:28.448Z,60.20
2018-12-18T23:21:58.440Z,60.28
2018-12-18T23:24:28.372Z,60.04
2018-12-18T23:26:58.336Z,59.51
2018-12-18T23:29:28.296Z,59.98
2018-12-18T23:31:58.296Z,59.27
2018-12-18T23:34:32.998Z,60.18
2018-12-18T23:37:00.101Z,59.53
2018-12-18T23:39:30.050Z,59.47
2018-12-18T23:42:00.293Z,59.24
2018-12-18T23:44:30.296Z,60.32
2018-12-18T23:47:00.205Z,60.23
2018-12-18T23:49:30.125Z,59.70
2018-12-18T23:52:00.100Z,60.03
2018-12-18T23:54:30.009Z,59.67
2018-12-18T23:56:59.924Z,59.87
2018-12-18T23:59:29.836Z,60.24
